Caledon, Canada
Current Conditions -  °F | °C
As of 4:00 PM on Wednesday 26 Nov 2014 (Local Time) from CYYZ Reporting Station
Overcast Overcast  
Wind Chill: 26°   Ceiling: 2800
Heat Index: 34°   Visibility: 15mi
Dew Point: 25°   Wind: 9mph
Humidity: 70%   Direction: 60°ENE
Pressure: 30.11"   Gusts: NA
Location:  43.87°N, 80°W
Report Text: CYYZ 262100Z 06008KT 15SM OVC028 01/M04 A3011 RMK SC8 SLP205
Loading
Personal Weather Stations






























Interactive Weather Map New forecast layout! Learn more

10-Day Weather Forecast

Advertisements
Track Severe Weather on mobile